Time;durP1;ratioP1;P1;durP2;ratioP2;P2;SDS_P1;SDS_P2;PMS_P1;PMS_P2;Temp;Humidity;BMP_temperature;BMP_pressure;BME280_temperature;BME280_humidity;BME280_pressure;Samples;Min_cycle;Max_cycle;Signal;HPM_P1;HPM_P2
2021/12/31 00:02:26;;;;;;;18.45;14.45;;;12.40;99.90;;;;;;4908946;29;20187;-96
2021/12/31 00:04:52;;;;;;;15.35;13.68;;;12.40;99.90;;;;;;4924447;29;20228;-96
2021/12/31 00:07:18;;;;;;;15.20;13.13;;;12.40;99.90;;;;;;4923768;29;20298;-96
2021/12/31 00:10:00;;;;;;;14.70;12.57;;;12.40;99.90;;;;;;4908624;29;20634;-96
2021/12/31 00:12:30;;;;;;;15.60;12.85;;;12.40;99.90;;;;;;4907935;29;20716;-96
2021/12/31 00:14:57;;;;;;;17.08;13.38;;;12.40;99.90;;;;;;4908743;29;20187;-96
2021/12/31 00:17:24;;;;;;;18.00;12.45;;;12.40;99.90;;;;;;4909424;29;20211;-96
2021/12/31 00:20:01;;;;;;;13.90;11.80;;;12.50;99.90;;;;;;4910197;29;20189;-96
2021/12/31 00:25:36;;;;;;;14.45;11.05;;;12.50;99.90;;;;;;4925523;29;20233;-95
2021/12/31 00:28:06;;;;;;;14.43;10.85;;;12.50;99.90;;;;;;4908524;29;20206;-96
2021/12/31 00:30:37;;;;;;;11.95;9.82;;;12.50;99.90;;;;;;4908438;29;20702;-95
2021/12/31 00:33:07;;;;;;;13.10;10.23;;;12.50;99.90;;;;;;4907978;29;20193;-96
2021/12/31 00:35:33;;;;;;;14.27;10.00;;;12.50;99.90;;;;;;4909028;29;20215;-95
2021/12/31 00:38:08;;;;;;;12.00;9.63;;;12.50;99.90;;;;;;4907933;29;20229;-96
2021/12/31 00:40:34;;;;;;;11.57;9.18;;;12.50;99.90;;;;;;4923860;29;20185;-96
2021/12/31 00:43:06;;;;;;;12.93;9.00;;;12.50;99.90;;;;;;4922961;29;20270;-96
2021/12/31 00:45:48;;;;;;;10.95;8.10;;;12.50;99.90;;;;;;4906336;29;20210;-96
2021/12/31 00:48:14;;;;;;;10.35;8.55;;;12.50;99.90;;;;;;4907353;29;20207;-96
2021/12/31 00:50:45;;;;;;;8.77;7.80;;;12.50;99.90;;;;;;4923861;29;20194;-95
2021/12/31 00:53:13;;;;;;;10.95;8.38;;;12.50;99.90;;;;;;4907292;29;20186;-96
2021/12/31 00:55:43;;;;;;;9.70;7.55;;;12.50;99.90;;;;;;4907151;29;20270;-96
2021/12/31 00:58:13;;;;;;;7.70;7.00;;;12.50;99.90;;;;;;4907184;29;20693;-95
2021/12/31 01:00:41;;;;;;;10.65;7.53;;;12.50;99.90;;;;;;4923720;29;20182;-96
2021/12/31 01:03:18;;;;;;;8.00;6.97;;;12.50;99.90;;;;;;4923032;29;20186;-96
2021/12/31 01:05:45;;;;;;;9.25;6.70;;;12.50;99.90;;;;;;4907445;29;20220;-96
2021/12/31 01:08:12;;;;;;;9.77;7.13;;;12.50;99.90;;;;;;4907250;29;20210;-96
2021/12/31 01:10:38;;;;;;;8.63;6.03;;;12.50;99.90;;;;;;4923184;29;20179;-96
2021/12/31 01:13:10;;;;;;;7.05;5.70;;;12.50;99.90;;;;;;4907487;29;20179;-95
2021/12/31 01:15:46;;;;;;;8.15;5.47;;;12.40;99.90;;;;;;4923481;29;20201;-96
2021/12/31 01:20:41;;;;;;;7.13;5.05;;;12.50;99.90;;;;;;4924763;29;20266;-96
2021/12/31 01:23:10;;;;;;;7.15;4.82;;;12.40;99.90;;;;;;4907643;29;20194;-96
2021/12/31 01:25:38;;;;;;;5.43;4.20;;;12.40;99.90;;;;;;4908262;29;20217;-95
2021/12/31 01:28:09;;;;;;;6.50;3.90;;;12.50;99.90;;;;;;4923196;29;20305;-95
2021/12/31 01:30:35;;;;;;;6.20;4.28;;;12.50;99.90;;;;;;4907023;29;20618;-95
2021/12/31 01:33:14;;;;;;;7.30;4.40;;;12.40;99.90;;;;;;4907354;29;20182;-96
2021/12/31 01:35:48;;;;;;;8.32;4.25;;;12.40;99.90;;;;;;4907933;29;20190;-95
2021/12/31 01:38:16;;;;;;;7.22;4.05;;;12.30;99.90;;;;;;4906977;29;20206;-96
2021/12/31 01:40:52;;;;;;;4.45;3.60;;;12.30;99.90;;;;;;4922785;29;20223;-96
2021/12/31 01:43:21;;;;;;;5.20;4.20;;;12.30;99.90;;;;;;4906806;29;20186;-96
2021/12/31 01:45:55;;;;;;;5.60;4.80;;;12.30;99.90;;;;;;4907474;29;20207;-96
2021/12/31 01:48:48;;;;;;;5.97;4.68;;;12.40;99.90;;;;;;4923417;29;20206;-95
2021/12/31 01:51:16;;;;;;;8.35;4.50;;;12.40;99.90;;;;;;4922507;29;20679;-95
2021/12/31 01:53:43;;;;;;;7.47;5.05;;;12.40;99.90;;;;;;4906499;29;20190;-96
2021/12/31 01:56:31;;;;;;;6.00;4.18;;;12.40;99.90;;;;;;4907689;29;20191;-95
2021/12/31 01:59:06;;;;;;;5.20;4.40;;;12.40;99.90;;;;;;4910191;29;20567;-96
2021/12/31 02:01:34;;;;;;;7.88;4.45;;;12.40;99.90;;;;;;4910709;29;20190;-96
2021/12/31 02:04:00;;;;;;;5.38;3.70;;;12.40;99.90;;;;;;4911526;29;20539;-96
2021/12/31 02:06:28;;;;;;;4.75;3.15;;;12.40;99.90;;;;;;4911584;29;20206;-96
2021/12/31 02:08:56;;;;;;;3.17;2.70;;;12.50;99.90;;;;;;4927125;29;20190;-95
2021/12/31 02:11:24;;;;;;;4.07;2.53;;;12.60;99.90;;;;;;4911235;29;20207;-96
2021/12/31 02:14:02;;;;;;;3.53;2.50;;;12.60;99.90;;;;;;4896095;29;20194;-96
2021/12/31 02:16:31;;;;;;;2.72;2.33;;;12.60;99.90;;;;;;4910388;29;20752;-96
2021/12/31 02:19:17;;;;;;;4.18;2.60;;;12.60;99.90;;;;;;4911607;29;20217;-96
2021/12/31 02:21:50;;;;;;;3.65;2.70;;;12.60;99.90;;;;;;4911865;29;20198;-96
2021/12/31 02:24:22;;;;;;;4.47;2.78;;;12.50;99.90;;;;;;4910809;29;20316;-96
2021/12/31 02:26:51;;;;;;;4.32;3.08;;;12.50;99.90;;;;;;4910356;29;20239;-95
2021/12/31 02:29:23;;;;;;;6.03;3.58;;;12.50;99.90;;;;;;4911583;29;20190;-94
2021/12/31 02:31:49;;;;;;;6.07;3.60;;;12.40;99.90;;;;;;4910769;29;20182;-96
2021/12/31 02:34:24;;;;;;;4.85;3.60;;;12.40;99.90;;;;;;4912461;29;20250;-96
2021/12/31 02:36:50;;;;;;;4.22;3.30;;;12.40;99.90;;;;;;4911767;29;20202;-96
2021/12/31 02:39:30;;;;;;;5.90;3.75;;;12.40;99.90;;;;;;4927720;29;20194;-96
2021/12/31 02:42:01;;;;;;;7.25;3.67;;;12.40;99.90;;;;;;4914492;29;20186;-96
2021/12/31 02:44:29;;;;;;;4.80;4.05;;;12.40;99.90;;;;;;4928801;29;20247;-95
2021/12/31 02:47:02;;;;;;;5.18;3.80;;;12.40;99.90;;;;;;4928630;29;20214;-96
2021/12/31 02:49:36;;;;;;;5.40;4.20;;;12.40;99.90;;;;;;4913587;29;20227;-96
2021/12/31 02:52:04;;;;;;;5.55;4.15;;;12.40;99.90;;;;;;4927866;29;20190;-96
2021/12/31 02:54:35;;;;;;;5.53;4.70;;;12.40;99.90;;;;;;4911834;29;20209;-96
2021/12/31 02:57:02;;;;;;;6.63;4.45;;;12.40;99.90;;;;;;4913564;29;20245;-94
2021/12/31 02:59:29;;;;;;;9.35;4.70;;;12.30;99.90;;;;;;4911742;29;20183;-96
2021/12/31 03:02:06;;;;;;;5.47;4.97;;;12.30;99.90;;;;;;4927779;29;20178;-95
2021/12/31 03:04:38;;;;;;;6.03;5.10;;;12.30;99.90;;;;;;4926416;29;20700;-96
2021/12/31 03:07:11;;;;;;;6.80;5.18;;;12.30;99.90;;;;;;4911068;29;20301;-96
2021/12/31 03:09:43;;;;;;;6.40;5.60;;;12.30;99.90;;;;;;4912213;29;20175;-96
2021/12/31 03:12:19;;;;;;;6.20;5.60;;;12.30;99.90;;;;;;4913078;29;20230;-96
2021/12/31 03:14:47;;;;;;;7.03;6.32;;;12.20;99.90;;;;;;4914144;29;20178;-95
2021/12/31 03:17:20;;;;;;;7.82;7.03;;;12.20;99.90;;;;;;4914315;29;20230;-96
2021/12/31 03:19:48;;;;;;;7.53;6.80;;;12.30;99.90;;;;;;4913232;29;20195;-96
2021/12/31 03:22:16;;;;;;;8.90;7.70;;;12.20;99.90;;;;;;4913057;29;20249;-95
2021/12/31 03:24:52;;;;;;;8.75;7.90;;;12.30;99.90;;;;;;4913686;29;20214;-96
2021/12/31 03:27:18;;;;;;;10.55;9.23;;;12.20;99.90;;;;;;4913634;29;20206;-96
2021/12/31 03:29:55;;;;;;;9.77;8.80;;;12.20;99.90;;;;;;4914186;29;20179;-96
2021/12/31 03:32:27;;;;;;;10.65;9.43;;;12.20;99.90;;;;;;4929410;29;20179;-96
2021/12/31 03:34:57;;;;;;;12.13;9.75;;;12.30;99.90;;;;;;4914453;29;20183;-96
2021/12/31 03:37:25;;;;;;;10.75;8.75;;;12.20;99.90;;;;;;4913456;29;20277;-96
2021/12/31 03:40:01;;;;;;;12.63;9.82;;;12.20;99.90;;;;;;4930687;29;20185;-96
2021/12/31 03:42:27;;;;;;;11.25;9.82;;;12.20;99.90;;;;;;4914215;29;20199;-96
2021/12/31 03:45:02;;;;;;;14.35;10.35;;;12.10;99.90;;;;;;4913735;29;20210;-96
2021/12/31 03:50:20;;;;;;;9.65;8.80;;;12.10;99.90;;;;;;5153286;23;20236;-94
2021/12/31 03:52:46;;;;;;;10.52;9.52;;;12.20;99.90;;;;;;4956444;29;20208;-94
2021/12/31 03:55:12;;;;;;;10.45;9.45;;;12.20;99.90;;;;;;4940278;29;20548;-93
2021/12/31 03:57:38;;;;;;;10.52;9.52;;;12.10;99.90;;;;;;4940494;29;20628;-95
2021/12/31 04:00:06;;;;;;;10.00;8.93;;;12.20;99.90;;;;;;4954186;28;20216;-93
2021/12/31 04:02:32;;;;;;;10.32;9.32;;;12.10;99.90;;;;;;4958151;28;20247;-93
2021/12/31 04:04:58;;;;;;;11.48;9.40;;;12.10;99.90;;;;;;4945122;28;20235;-93
2021/12/31 04:07:24;;;;;;;9.98;8.98;;;12.10;99.90;;;;;;4958709;28;20559;-94
2021/12/31 04:09:49;;;;;;;13.93;9.95;;;12.10;99.90;;;;;;4959371;28;20188;-94
2021/12/31 04:12:16;;;;;;;9.93;8.93;;;12.10;99.90;;;;;;4959329;28;20188;-93
2021/12/31 04:14:42;;;;;;;11.00;9.32;;;12.10;99.90;;;;;;4959295;28;20642;-93
2021/12/31 04:17:07;;;;;;;10.07;9.07;;;12.20;99.90;;;;;;4959840;28;20200;-95
2021/12/31 04:19:33;;;;;;;10.68;8.43;;;12.20;99.90;;;;;;4942879;29;20537;-94
2021/12/31 04:21:59;;;;;;;9.77;8.80;;;12.20;99.90;;;;;;4940315;29;20192;-93
2021/12/31 04:24:41;;;;;;;10.65;9.25;;;12.20;99.90;;;;;;4944119;28;20207;-94
2021/12/31 04:27:06;;;;;;;8.88;7.95;;;12.20;99.90;;;;;;4959473;28;20266;-94
2021/12/31 04:29:32;;;;;;;10.70;8.40;;;12.20;99.90;;;;;;4959432;28;20623;-93
2021/12/31 04:31:58;;;;;;;10.02;7.75;;;12.20;99.90;;;;;;4959430;28;20200;-93
2021/12/31 04:34:23;;;;;;;10.65;8.00;;;12.20;99.90;;;;;;4959070;28;20211;-95
2021/12/31 04:36:49;;;;;;;9.90;7.70;;;12.20;99.90;;;;;;4958803;28;20503;-94
2021/12/31 04:39:15;;;;;;;9.68;7.82;;;12.20;99.90;;;;;;4959265;28;20616;-94
2021/12/31 04:41:40;;;;;;;12.30;8.10;;;12.20;99.90;;;;;;4958946;28;20184;-93
2021/12/31 04:44:06;;;;;;;9.30;7.82;;;12.20;99.90;;;;;;4959068;28;20191;-94
2021/12/31 04:46:32;;;;;;;8.82;7.72;;;12.20;99.90;;;;;;4958833;28;20262;-94
2021/12/31 04:48:58;;;;;;;12.35;8.23;;;12.20;99.90;;;;;;4958796;28;20360;-93
2021/12/31 04:51:24;;;;;;;8.60;7.70;;;12.20;99.90;;;;;;4958922;28;20611;-93
2021/12/31 04:53:50;;;;;;;9.98;7.30;;;12.20;99.90;;;;;;4959120;28;20212;-94
2021/12/31 04:56:16;;;;;;;9.63;7.43;;;12.20;99.90;;;;;;4959223;28;20227;-95
2021/12/31 04:58:42;;;;;;;10.25;8.00;;;12.20;99.90;;;;;;4959182;28;20192;-93
2021/12/31 05:01:08;;;;;;;9.40;7.30;;;12.20;99.90;;;;;;4958959;28;20240;-93
2021/12/31 05:03:33;;;;;;;11.57;7.80;;;12.20;99.90;;;;;;4959161;28;20519;-93
2021/12/31 05:05:59;;;;;;;10.98;7.57;;;12.20;99.90;;;;;;4958859;28;20318;-96
2021/12/31 05:08:25;;;;;;;8.20;7.35;;;12.20;99.90;;;;;;4959039;28;20187;-93
2021/12/31 05:10:50;;;;;;;8.38;7.40;;;12.20;99.90;;;;;;4959018;28;20192;-94
2021/12/31 05:13:19;;;;;;;12.48;8.38;;;12.20;99.90;;;;;;4959479;28;20251;-93
2021/12/31 05:15:46;;;;;;;11.23;7.65;;;12.30;99.90;;;;;;4959138;28;20651;-93
2021/12/31 05:18:13;;;;;;;9.93;7.88;;;12.30;99.90;;;;;;4958813;28;20189;-94
2021/12/31 05:20:39;;;;;;;9.27;8.00;;;12.30;99.90;;;;;;4958948;28;20189;-94
2021/12/31 05:23:05;;;;;;;9.75;7.97;;;12.30;99.90;;;;;;4958920;28;20195;-93
2021/12/31 05:25:31;;;;;;;8.85;8.00;;;12.30;99.90;;;;;;4976007;28;20212;-95
2021/12/31 05:27:57;;;;;;;10.65;7.68;;;12.30;99.90;;;;;;4959297;28;20195;-94
2021/12/31 05:30:23;;;;;;;8.73;7.43;;;12.30;99.90;;;;;;4959043;28;20201;-93
2021/12/31 05:32:48;;;;;;;11.07;7.57;;;12.30;99.90;;;;;;4961928;28;20196;-94
2021/12/31 05:35:15;;;;;;;9.68;7.10;;;12.30;99.90;;;;;;4963795;28;20255;-96
2021/12/31 05:37:41;;;;;;;11.05;7.72;;;12.30;99.90;;;;;;4966058;28;20208;-95
2021/12/31 05:40:07;;;;;;;8.95;7.22;;;12.40;99.90;;;;;;4965628;28;20177;-96
2021/12/31 05:42:33;;;;;;;8.35;7.55;;;12.30;99.90;;;;;;4967150;28;20184;-96
2021/12/31 05:44:58;;;;;;;9.98;7.25;;;12.30;99.90;;;;;;4965246;28;20610;-96
2021/12/31 05:47:24;;;;;;;9.75;7.72;;;12.30;99.90;;;;;;4957229;28;20624;-96
2021/12/31 05:49:51;;;;;;;10.75;7.45;;;12.30;99.90;;;;;;4945996;29;20237;-95
2021/12/31 05:52:17;;;;;;;12.25;6.95;;;12.30;99.90;;;;;;4946646;29;20189;-96
2021/12/31 05:54:43;;;;;;;8.55;6.90;;;12.30;99.90;;;;;;4946326;29;20267;-96
2021/12/31 05:57:09;;;;;;;7.40;5.75;;;12.30;99.90;;;;;;4945126;29;20275;-96
2021/12/31 05:59:34;;;;;;;7.30;5.53;;;12.40;99.90;;;;;;4955507;28;20299;-95
2021/12/31 06:02:00;;;;;;;6.68;5.43;;;12.40;99.90;;;;;;4963133;28;20191;-93
2021/12/31 06:04:26;;;;;;;9.63;5.95;;;12.40;99.90;;;;;;4969739;28;20247;-92
2021/12/31 06:06:52;;;;;;;6.45;5.85;;;12.30;99.90;;;;;;4965981;28;20216;-96
2021/12/31 06:09:17;;;;;;;8.30;5.80;;;12.30;99.90;;;;;;4966046;28;20248;-96
2021/12/31 06:11:45;;;;;;;7.57;5.80;;;12.20;99.90;;;;;;4963774;28;20189;-96
2021/12/31 06:14:11;;;;;;;13.05;5.85;;;12.30;99.90;;;;;;4962909;28;20185;-95
2021/12/31 06:16:43;;;;;;;9.10;5.97;;;12.20;99.90;;;;;;4965762;28;20287;-95
2021/12/31 06:19:14;;;;;;;7.75;6.60;;;12.20;99.90;;;;;;4955560;29;20185;-96
2021/12/31 06:21:41;;;;;;;9.88;6.40;;;12.20;99.90;;;;;;4965797;28;20199;-96
2021/12/31 06:24:08;;;;;;;8.93;6.78;;;12.10;99.90;;;;;;4965273;28;20308;-96
2021/12/31 06:26:34;;;;;;;14.75;7.22;;;12.10;99.90;;;;;;4963655;28;20291;-96
2021/12/31 06:29:00;;;;;;;11.65;6.57;;;12.10;99.90;;;;;;4964145;28;20532;-96
2021/12/31 06:31:27;;;;;;;11.55;7.00;;;12.10;99.90;;;;;;4965030;28;20220;-95
2021/12/31 06:33:53;;;;;;;11.52;7.35;;;12.10;99.90;;;;;;4952763;29;20620;-96
2021/12/31 06:36:20;;;;;;;7.90;6.15;;;12.10;99.90;;;;;;4960752;28;20185;-96
2021/12/31 06:38:46;;;;;;;8.68;5.65;;;12.10;99.90;;;;;;4957640;29;20338;-96
2021/12/31 06:41:14;;;;;;;7.80;5.68;;;12.20;99.90;;;;;;4960968;28;20185;-96
2021/12/31 06:43:40;;;;;;;10.13;4.82;;;12.20;99.90;;;;;;4965568;28;20230;-93
2021/12/31 06:46:05;;;;;;;7.70;4.68;;;12.20;99.90;;;;;;4964111;28;20224;-94
2021/12/31 06:48:31;;;;;;;7.65;4.93;;;12.20;99.90;;;;;;4964626;28;20223;-94
2021/12/31 06:50:57;;;;;;;5.88;4.40;;;12.10;99.90;;;;;;4964185;28;20201;-96
2021/12/31 06:53:22;;;;;;;9.32;4.40;;;12.20;99.90;;;;;;4959869;29;20193;-96
2021/12/31 06:55:48;;;;;;;5.55;3.75;;;12.10;99.90;;;;;;4961528;28;20188;-96
2021/12/31 06:58:14;;;;;;;6.22;4.22;;;12.20;99.90;;;;;;4958425;28;20195;-95
2021/12/31 07:00:41;;;;;;;7.63;3.92;;;12.20;99.90;;;;;;4961546;28;20207;-96
2021/12/31 07:03:13;;;;;;;5.25;3.53;;;12.20;99.90;;;;;;4962992;28;20185;-96
2021/12/31 07:05:43;;;;;;;7.20;3.55;;;12.10;99.90;;;;;;4948382;28;20319;-96
2021/12/31 07:08:10;;;;;;;8.32;3.47;;;12.10;99.90;;;;;;4961532;28;20212;-95
2021/12/31 07:10:36;;;;;;;7.97;3.17;;;12.10;99.90;;;;;;4968690;28;20263;-94
2021/12/31 07:13:05;;;;;;;7.50;2.95;;;12.10;99.90;;;;;;4964152;28;20215;-96
2021/12/31 07:15:32;;;;;;;4.60;2.67;;;12.10;99.90;;;;;;4981533;28;20188;-96
2021/12/31 07:17:57;;;;;;;4.90;2.75;;;12.20;99.90;;;;;;4963639;28;20181;-96
2021/12/31 07:20:23;;;;;;;7.53;2.40;;;12.10;99.90;;;;;;4958851;28;20193;-96
2021/12/31 07:22:49;;;;;;;4.15;2.38;;;12.10;99.90;;;;;;4961295;29;20288;-95
2021/12/31 07:25:15;;;;;;;3.08;2.20;;;12.20;99.90;;;;;;4946923;29;20219;-96
2021/12/31 07:27:41;;;;;;;4.47;2.28;;;12.20;99.90;;;;;;4953041;28;20185;-93
2021/12/31 07:30:07;;;;;;;6.63;2.33;;;12.20;99.90;;;;;;4960263;28;20209;-93
2021/12/31 07:32:37;;;;;;;6.40;1.83;;;12.30;99.90;;;;;;4954215;28;20520;-93
2021/12/31 07:35:04;;;;;;;5.55;1.90;;;12.30;99.90;;;;;;4959774;28;20188;-96
2021/12/31 07:37:30;;;;;;;3.80;1.58;;;12.20;99.90;;;;;;4960192;28;20307;-96
2021/12/31 07:40:01;;;;;;;6.43;1.80;;;12.30;99.90;;;;;;4959649;28;20211;-95
2021/12/31 07:42:28;;;;;;;7.22;1.98;;;12.20;99.90;;;;;;4951248;28;20196;-96
2021/12/31 07:44:54;;;;;;;4.35;1.98;;;12.20;99.90;;;;;;4964457;28;20276;-96
2021/12/31 07:47:20;;;;;;;4.03;1.75;;;12.20;99.90;;;;;;4965297;28;20573;-96
2021/12/31 07:49:46;;;;;;;6.03;1.80;;;12.10;99.90;;;;;;4963739;28;20552;-94
2021/12/31 07:52:11;;;;;;;5.13;1.95;;;12.10;99.90;;;;;;4964927;28;20219;-96
2021/12/31 07:54:37;;;;;;;4.07;1.40;;;12.10;99.90;;;;;;4960782;28;20200;-96
2021/12/31 07:57:03;;;;;;;3.78;1.63;;;12.10;99.90;;;;;;4962642;28;20188;-96
2021/12/31 07:59:30;;;;;;;5.50;2.10;;;12.10;99.90;;;;;;4950909;28;20196;-96
2021/12/31 08:01:56;;;;;;;4.18;1.50;;;12.10;99.90;;;;;;4946461;29;20189;-96
2021/12/31 08:04:25;;;;;;;6.22;1.90;;;12.10;99.90;;;;;;4947268;29;20193;-96
2021/12/31 08:06:50;;;;;;;5.45;1.60;;;12.10;99.90;;;;;;4946050;29;20193;-96
2021/12/31 08:09:16;;;;;;;5.88;1.70;;;12.20;99.90;;;;;;4947513;29;20265;-96
2021/12/31 08:11:42;;;;;;;2.33;1.10;;;12.30;99.90;;;;;;4944814;29;20196;-96
2021/12/31 08:14:09;;;;;;;3.45;1.50;;;12.30;99.90;;;;;;4945698;29;20305;-96
2021/12/31 08:16:39;;;;;;;3.65;1.60;;;12.40;99.90;;;;;;4948787;29;20204;-96
2021/12/31 08:19:09;;;;;;;3.50;1.25;;;12.40;99.90;;;;;;4945287;29;20185;-96
2021/12/31 08:21:35;;;;;;;4.60;1.50;;;12.40;99.90;;;;;;4929424;29;20197;-96
2021/12/31 08:24:03;;;;;;;2.08;1.27;;;12.50;99.90;;;;;;4944641;29;20191;-96
2021/12/31 08:26:32;;;;;;;3.60;1.20;;;12.50;99.90;;;;;;4961772;29;20227;-96
2021/12/31 08:29:15;;;;;;;4.78;1.70;;;12.50;99.90;;;;;;4956401;28;20272;-96
2021/12/31 08:31:49;;;;;;;3.90;1.27;;;12.50;99.90;;;;;;4980049;28;20215;-96
2021/12/31 08:34:16;;;;;;;3.88;1.30;;;12.60;99.90;;;;;;4969976;28;20188;-96
2021/12/31 08:36:57;;;;;;;5.22;1.30;;;12.70;99.90;;;;;;4988428;28;20195;-96
2021/12/31 08:39:29;;;;;;;4.60;1.17;;;12.70;99.90;;;;;;4967077;28;20188;-96
2021/12/31 08:42:16;;;;;;;5.97;1.83;;;12.70;99.90;;;;;;4977503;28;20204;-96
2021/12/31 08:44:45;;;;;;;4.40;1.38;;;12.80;99.90;;;;;;4969873;28;20212;-96
2021/12/31 08:47:11;;;;;;;4.82;1.40;;;12.80;99.90;;;;;;4972110;28;20196;-96
2021/12/31 08:49:37;;;;;;;5.20;1.50;;;12.80;99.90;;;;;;4960989;28;20239;-96
2021/12/31 08:52:03;;;;;;;5.03;1.50;;;12.90;99.90;;;;;;4960561;28;20185;-96
2021/12/31 08:54:29;;;;;;;5.38;1.58;;;12.90;99.90;;;;;;4963750;28;20199;-96
2021/12/31 08:56:55;;;;;;;4.38;1.30;;;12.90;99.90;;;;;;4962613;28;20644;-96
2021/12/31 08:59:21;;;;;;;4.50;1.40;;;12.90;99.90;;;;;;4960847;28;20193;-96
2021/12/31 09:01:47;;;;;;;2.45;1.30;;;12.90;99.90;;;;;;4961079;28;20544;-95
2021/12/31 09:04:15;;;;;;;3.85;1.35;;;12.90;99.90;;;;;;4961752;28;20227;-96
2021/12/31 09:06:44;;;;;;;4.80;1.33;;;13.00;99.90;;;;;;4952296;28;20196;-96
2021/12/31 09:09:11;;;;;;;3.47;1.27;;;13.00;99.90;;;;;;4988205;28;20212;-96
2021/12/31 09:11:38;;;;;;;4.05;1.33;;;13.00;99.90;;;;;;4971992;28;20184;-96
2021/12/31 09:14:05;;;;;;;6.22;1.45;;;13.10;99.90;;;;;;4991327;28;20274;-96
2021/12/31 09:16:31;;;;;;;6.72;1.40;;;13.10;99.90;;;;;;4973257;28;20252;-96
2021/12/31 09:19:08;;;;;;;3.13;1.20;;;13.10;99.90;;;;;;4972541;28;20247;-96
2021/12/31 09:21:33;;;;;;;2.55;1.10;;;13.20;99.90;;;;;;4970797;28;20211;-96
2021/12/31 09:24:02;;;;;;;3.08;1.20;;;13.10;99.90;;;;;;4970514;28;20189;-96
2021/12/31 09:26:31;;;;;;;2.50;0.90;;;13.10;99.90;;;;;;4987610;28;20212;-96
2021/12/31 09:28:57;;;;;;;3.45;1.00;;;13.20;99.90;;;;;;4966921;28;20191;-96
2021/12/31 09:31:23;;;;;;;5.05;1.23;;;13.10;99.90;;;;;;4967926;28;20538;-96
2021/12/31 09:33:49;;;;;;;4.25;1.17;;;13.20;99.90;;;;;;4973292;28;20272;-96
2021/12/31 09:36:19;;;;;;;2.17;0.95;;;13.10;99.90;;;;;;4969051;28;20191;-96
2021/12/31 09:38:48;;;;;;;2.05;1.02;;;13.10;99.90;;;;;;4966977;28;20252;-96
2021/12/31 09:41:19;;;;;;;2.15;1.15;;;13.10;99.90;;;;;;4968069;28;20194;-96
2021/12/31 09:43:50;;;;;;;2.67;1.35;;;13.20;99.90;;;;;;4969232;28;20185;-96
2021/12/31 09:46:17;;;;;;;4.30;0.98;;;13.20;99.90;;;;;;4969042;28;20213;-96
2021/12/31 09:48:45;;;;;;;3.33;1.27;;;13.30;99.90;;;;;;4968147;28;20188;-96
2021/12/31 09:51:11;;;;;;;1.70;1.00;;;13.30;99.90;;;;;;4969307;28;20200;-96
2021/12/31 09:53:37;;;;;;;3.85;1.10;;;13.30;99.90;;;;;;4971698;28;20189;-96
2021/12/31 09:56:14;;;;;;;2.47;1.13;;;13.30;99.90;;;;;;4985594;28;20184;-96
2021/12/31 09:58:41;;;;;;;6.35;1.27;;;13.30;99.90;;;;;;4972286;28;20184;-96
2021/12/31 10:01:08;;;;;;;2.28;1.10;;;13.30;99.90;;;;;;4963553;28;20292;-95
2021/12/31 10:03:36;;;;;;;1.52;0.90;;;13.30;99.90;;;;;;4957053;28;20224;-94
2021/12/31 10:06:14;;;;;;;3.95;1.10;;;13.30;99.90;;;;;;4960111;28;20238;-93
2021/12/31 10:08:44;;;;;;;3.03;0.95;;;13.40;99.90;;;;;;4960907;28;20247;-93
2021/12/31 10:11:14;;;;;;;1.80;0.82;;;13.30;99.90;;;;;;4960604;28;20224;-92
2021/12/31 10:13:43;;;;;;;3.17;1.15;;;13.30;99.90;;;;;;4960515;28;20189;-93
2021/12/31 10:16:30;;;;;;;3.30;1.08;;;13.30;99.90;;;;;;4960448;28;20193;-93
2021/12/31 10:19:08;;;;;;;3.08;1.35;;;13.30;99.90;;;;;;4959400;28;20192;-93
2021/12/31 10:21:43;;;;;;;3.35;1.05;;;13.30;99.90;;;;;;4956336;28;20275;-94
2021/12/31 10:24:32;;;;;;;2.38;0.88;;;13.30;99.90;;;;;;4960316;28;20192;-94
2021/12/31 10:27:10;;;;;;;1.92;0.77;;;13.30;99.90;;;;;;4959888;28;20204;-95
2021/12/31 10:30:06;;;;;;;2.60;1.15;;;13.30;99.90;;;;;;4953980;28;20227;-93
2021/12/31 10:32:35;;;;;;;1.85;0.90;;;13.30;99.90;;;;;;4959520;28;20267;-93
2021/12/31 10:35:11;;;;;;;4.78;1.15;;;13.30;99.90;;;;;;4959141;28;20212;-95
2021/12/31 10:37:46;;;;;;;2.97;0.85;;;13.30;99.90;;;;;;4959983;28;20634;-95
2021/12/31 10:40:25;;;;;;;2.50;1.40;;;13.30;99.90;;;;;;4956932;28;20260;-94
2021/12/31 10:43:17;;;;;;;3.58;1.02;;;13.30;99.90;;;;;;4957911;28;20185;-93
2021/12/31 10:46:05;;;;;;;4.15;1.10;;;13.30;99.90;;;;;;4957003;28;20224;-93
2021/12/31 10:48:45;;;;;;;2.47;0.90;;;13.40;99.90;;;;;;4958701;28;20214;-93
2021/12/31 10:51:16;;;;;;;3.05;1.10;;;13.40;99.90;;;;;;4959034;28;20251;-94
2021/12/31 10:53:50;;;;;;;2.05;1.17;;;13.30;99.90;;;;;;4959484;28;20261;-93
2021/12/31 10:56:16;;;;;;;1.90;1.00;;;13.30;99.90;;;;;;4955407;28;20223;-92
2021/12/31 10:58:44;;;;;;;3.85;1.13;;;13.30;99.90;;;;;;4956311;28;20208;-94
2021/12/31 11:01:13;;;;;;;2.58;0.90;;;13.20;99.90;;;;;;4958251;28;20184;-93
2021/12/31 11:03:40;;;;;;;2.20;0.98;;;13.20;99.90;;;;;;4958567;28;20200;-93
2021/12/31 11:06:09;;;;;;;1.75;1.00;;;13.30;99.90;;;;;;4958634;28;20230;-93
2021/12/31 11:08:35;;;;;;;3.58;1.30;;;13.30;99.90;;;;;;4955545;28;20192;-93
2021/12/31 11:11:03;;;;;;;3.35;1.27;;;13.30;99.90;;;;;;4958799;28;20224;-94
2021/12/31 11:13:30;;;;;;;3.25;1.20;;;13.40;99.90;;;;;;4954327;28;20205;-93
2021/12/31 11:15:59;;;;;;;2.00;0.95;;;13.40;99.90;;;;;;4957796;28;20279;-94
2021/12/31 11:18:25;;;;;;;1.77;1.10;;;13.40;99.90;;;;;;4953826;28;20185;-92
2021/12/31 11:20:53;;;;;;;1.88;1.10;;;13.30;99.90;;;;;;4955138;28;20259;-94
2021/12/31 11:23:31;;;;;;;5.32;1.45;;;13.30;99.90;;;;;;4956565;28;20200;-93
2021/12/31 11:26:00;;;;;;;3.30;1.45;;;13.40;99.90;;;;;;4953153;28;20212;-93
2021/12/31 11:28:31;;;;;;;2.75;1.08;;;13.40;99.90;;;;;;4956654;28;20662;-92
2021/12/31 11:31:17;;;;;;;2.55;1.27;;;13.40;99.90;;;;;;4956667;28;20197;-91
2021/12/31 11:34:09;;;;;;;1.20;1.10;;;13.40;99.90;;;;;;4958624;28;20193;-94
2021/12/31 11:36:52;;;;;;;2.60;1.30;;;13.50;99.90;;;;;;4958068;28;20191;-94
2021/12/31 11:39:29;;;;;;;3.35;1.27;;;13.50;99.90;;;;;;4956058;28;20763;-93
2021/12/31 11:41:58;;;;;;;2.90;1.50;;;13.50;99.90;;;;;;4957570;28;20196;-93
2021/12/31 11:44:25;;;;;;;2.35;1.30;;;13.50;99.90;;;;;;4958192;28;20223;-94
2021/12/31 11:46:53;;;;;;;2.33;1.40;;;13.50;99.90;;;;;;4958387;28;20196;-94
2021/12/31 11:49:26;;;;;;;4.43;1.50;;;13.60;99.90;;;;;;4957860;28;20232;-94
2021/12/31 11:52:05;;;;;;;1.30;1.02;;;13.60;99.90;;;;;;4959635;28;20200;-94
2021/12/31 11:54:32;;;;;;;2.08;1.30;;;13.60;99.90;;;;;;4958508;28;20203;-94
2021/12/31 11:57:02;;;;;;;2.40;1.25;;;13.60;99.90;;;;;;4952297;28;20192;-93
2021/12/31 11:59:36;;;;;;;3.00;1.23;;;13.60;99.90;;;;;;4959696;28;20196;-94
2021/12/31 12:02:16;;;;;;;3.55;1.40;;;13.60;99.90;;;;;;4959081;28;20662;-93
2021/12/31 12:05:08;;;;;;;1.60;1.23;;;13.60;99.90;;;;;;4959574;28;20204;-93
2021/12/31 12:07:42;;;;;;;1.88;1.35;;;13.60;99.90;;;;;;4960137;28;20639;-94
2021/12/31 12:10:24;;;;;;;2.15;1.20;;;13.50;99.90;;;;;;4959668;28;20235;-95
2021/12/31 12:12:53;;;;;;;3.13;1.80;;;13.60;99.90;;;;;;4959533;28;20185;-93
2021/12/31 12:15:18;;;;;;;4.07;1.20;;;13.60;99.90;;;;;;4959487;28;20267;-93
2021/12/31 12:17:45;;;;;;;3.33;1.40;;;13.50;99.90;;;;;;4958904;28;20236;-94
2021/12/31 12:20:13;;;;;;;1.33;1.13;;;13.60;99.90;;;;;;4959336;28;20220;-94
2021/12/31 12:22:51;;;;;;;2.00;1.10;;;13.50;99.90;;;;;;4959407;28;20188;-94
2021/12/31 12:25:28;;;;;;;3.20;1.40;;;13.50;99.90;;;;;;4959258;28;20222;-94
2021/12/31 12:28:06;;;;;;;4.47;1.48;;;13.50;99.90;;;;;;4959028;28;20207;-94
2021/12/31 12:30:42;;;;;;;3.47;1.33;;;13.40;99.90;;;;;;4959475;28;20631;-94
2021/12/31 12:33:15;;;;;;;1.90;1.35;;;13.50;99.90;;;;;;4959264;28;20180;-94
2021/12/31 12:35:50;;;;;;;3.28;1.40;;;13.50;99.90;;;;;;4958821;28;20177;-93
2021/12/31 12:38:19;;;;;;;1.63;1.08;;;13.40;99.90;;;;;;4958234;28;20187;-95
2021/12/31 12:40:55;;;;;;;2.08;1.15;;;13.40;99.90;;;;;;4959416;28;20308;-94
2021/12/31 12:43:33;;;;;;;1.48;1.33;;;13.40;99.90;;;;;;4959293;28;20479;-94
2021/12/31 12:46:12;;;;;;;2.17;1.38;;;13.40;99.90;;;;;;4958682;28;20212;-94
2021/12/31 12:48:43;;;;;;;2.20;1.20;;;13.40;99.90;;;;;;4958771;28;20324;-94
2021/12/31 12:51:13;;;;;;;3.55;1.30;;;13.30;99.90;;;;;;4958563;28;20551;-94
2021/12/31 12:53:44;;;;;;;1.58;1.10;;;13.30;99.90;;;;;;4958483;28;20192;-94
2021/12/31 12:56:12;;;;;;;6.28;1.60;;;13.30;99.90;;;;;;4959346;28;20200;-94
2021/12/31 12:58:47;;;;;;;2.65;1.20;;;13.30;99.90;;;;;;4959181;28;20220;-94
2021/12/31 13:01:13;;;;;;;3.17;1.25;;;13.30;99.90;;;;;;4958990;28;20196;-94
2021/12/31 13:03:53;;;;;;;3.33;1.20;;;13.20;99.90;;;;;;4958863;28;20180;-94
2021/12/31 13:06:22;;;;;;;1.67;1.00;;;13.20;99.90;;;;;;4957126;28;20231;-94
2021/12/31 13:08:48;;;;;;;2.70;1.10;;;13.20;99.90;;;;;;4958166;28;20184;-93